Terminal Aerodrome Forecast
Issued by NWS

Home | Current Version | Previous Version | Text Only | Print | Product List | Glossary Off
Versions: 1 2 3 4 5 6 7 8 9 10 11 12 13 14 15

000
FTUS43 KOAX 312100 AAA
TAFCDR
TAF AMD
KCDR 312113Z 3121/0118 30007KT P6SM VCTS BKN100CB
      TEMPO 3121/3122 3SM +TSRA SCT050CB OVC080
     FM010100 27005KT P6SM SCT150=

USA.gov is the U.S. government's official web portal to all federal, state and local government web resources and services.